Hovedside
METAR-TAF:

METAR-TAF

Lufthavner :

Tela, Honduras

breddegrad: 15-43N, lengdegrad: 087-29W, høyde over havet: 3 m

Gjeldene værobservasjon

Denne rapporten ble laget for 5 timer og 18 minutter siden, klokken 06:00 UTC
Vind 5 kt fra Øst-nordøst
Temperatur 30°C
Luftfuktighet 84%
Trykk 1012 hPa
Sikt 10 km eller mer
Få skyer i en høyde av 2600 ft
Spredte skyer i en høyde av 8000 ft

METAR: MHTE 290600Z 06005KT 9999 FEW026 SCT080 30/27 Q1012 A2988

Tid: 05:18 (11:18 UTC)


TAF: fraværende

Værobservasjoner og værvarsel for over 4000 flyplasser (METAR- og TAF-rapporter).

Tilgjengelige stasjoner er representert av de røde og gule prikkene på kartet.

Hold musepekeren over prikken for å se navnet på stasjonen.

Klikk så for å se værobservasjoner og -varsler.

For å forandre kartet kan du klikke på den grønne knappen med svart kryss for å zoome inn, på den grønne knappen med strek for å zoome ut, eller på de grønne pilene for å se tilstøtende kart.


METAR-TAF: